createdAt,value
2022-11-26T00:00:50.464Z, 37.97
2022-11-26T00:01:50.628Z, 37.95
2022-11-26T00:02:50.698Z, 37.96
2022-11-26T00:03:50.579Z, 37.95
2022-11-26T00:04:50.585Z, 37.90
2022-11-26T00:05:50.585Z, 37.88
2022-11-26T00:06:50.578Z, 37.85
2022-11-26T00:07:50.665Z, 37.79
2022-11-26T00:08:50.584Z, 37.77
2022-11-26T00:09:50.607Z, 37.81
2022-11-26T00:10:50.585Z, 37.76
2022-11-26T00:11:50.610Z, 37.74
2022-11-26T00:12:50.590Z, 37.78
2022-11-26T00:13:50.593Z, 37.81
2022-11-26T00:14:50.590Z, 37.77
2022-11-26T00:15:50.613Z, 37.70
2022-11-26T00:16:50.665Z, 37.66
2022-11-26T00:17:50.730Z, 37.66
2022-11-26T00:18:50.732Z, 37.65
2022-11-26T00:19:50.729Z, 37.63
2022-11-26T00:20:50.735Z, 37.62
2022-11-26T00:21:50.759Z, 37.59
2022-11-26T00:22:50.865Z, 37.56
2022-11-26T00:23:50.760Z, 37.51
2022-11-26T00:24:50.767Z, 37.47
2022-11-26T00:25:50.773Z, 37.43
2022-11-26T00:26:50.874Z, 37.45
2022-11-26T00:27:50.871Z, 37.48
2022-11-26T00:28:50.868Z, 37.44
2022-11-26T00:29:50.874Z, 37.41
2022-11-26T00:30:50.875Z, 37.36
2022-11-26T00:31:50.932Z, 37.37
2022-11-26T00:32:50.875Z, 37.33
2022-11-26T00:33:50.962Z, 37.32
2022-11-26T00:34:50.899Z, 37.30
2022-11-26T00:35:54.000Z, 37.25
2022-11-26T00:36:50.913Z, 37.26
2022-11-26T00:37:50.969Z, 37.26
2022-11-26T00:38:50.908Z, 37.20
2022-11-26T00:39:50.972Z, 37.21
2022-11-26T00:40:50.995Z, 37.15
2022-11-26T00:41:50.967Z, 37.15
2022-11-26T00:42:50.984Z, 37.13
2022-11-26T00:43:50.976Z, 37.11
2022-11-26T00:44:50.971Z, 37.14
2022-11-26T00:45:51.206Z, 37.14
2022-11-26T00:46:51.003Z, 37.10
2022-11-26T00:47:50.979Z, 37.03
2022-11-26T00:48:50.978Z, 37.07
2022-11-26T00:49:51.006Z, 37.07
2022-11-26T00:50:51.006Z, 37.05
2022-11-26T00:51:51.006Z, 37.03
2022-11-26T00:52:51.007Z, 36.99
2022-11-26T00:53:51.154Z, 36.96
2022-11-26T00:54:51.179Z, 36.96
2022-11-26T00:55:51.190Z, 36.95
2022-11-26T00:56:51.328Z, 36.93
2022-11-26T00:57:51.326Z, 36.92
2022-11-26T00:58:51.325Z, 36.91
2022-11-26T00:59:51.325Z, 36.88
2022-11-26T01:00:51.420Z, 36.89
2022-11-26T01:01:51.399Z, 36.87
2022-11-26T01:02:51.333Z, 36.82
2022-11-26T01:03:51.331Z, 36.78
2022-11-26T01:04:51.333Z, 36.76
2022-11-26T01:05:51.332Z, 36.72
2022-11-26T01:06:51.345Z, 36.75
2022-11-26T01:07:51.443Z, 36.73
2022-11-26T01:08:51.333Z, 36.70
2022-11-26T01:09:51.331Z, 36.69
2022-11-26T01:10:51.357Z, 36.65
2022-11-26T01:11:54.317Z, 36.64
2022-11-26T01:12:51.358Z, 36.55
2022-11-26T01:13:51.499Z, 36.57
2022-11-26T01:14:51.358Z, 36.59
2022-11-26T01:15:51.360Z, 36.63
2022-11-26T01:16:51.588Z, 36.51
2022-11-26T01:17:51.507Z, 36.53
2022-11-26T01:18:51.500Z, 36.54
2022-11-26T01:19:51.505Z, 36.49
2022-11-26T01:20:51.503Z, 36.47
2022-11-26T01:21:51.510Z, 36.44
2022-11-26T01:22:51.504Z, 36.46
2022-11-26T01:23:51.508Z, 36.44
2022-11-26T01:24:51.509Z, 36.40
2022-11-26T01:25:51.510Z, 36.35
2022-11-26T01:26:51.677Z, 36.35
2022-11-26T01:27:51.684Z, 36.30
2022-11-26T01:28:51.676Z, 36.29
2022-11-26T01:29:51.685Z, 36.26
2022-11-26T01:30:51.687Z, 36.23
2022-11-26T01:31:51.743Z, 36.27
2022-11-26T01:32:51.682Z, 36.23
2022-11-26T01:33:51.686Z, 36.23
2022-11-26T01:34:51.691Z, 36.23
2022-11-26T01:35:51.685Z, 36.23
2022-11-26T01:36:51.686Z, 36.18
2022-11-26T01:37:51.695Z, 36.18
2022-11-26T01:38:51.689Z, 36.13
2022-11-26T01:39:51.715Z, 36.10
2022-11-26T01:40:51.857Z, 36.06
2022-11-26T01:41:51.863Z, 36.05
2022-11-26T01:42:51.860Z, 36.08
2022-11-26T01:43:51.729Z, 36.08
2022-11-26T01:44:51.725Z, 35.99
2022-11-26T01:45:51.805Z, 35.97
2022-11-26T01:46:51.869Z, 35.97
2022-11-26T01:47:51.866Z, 35.98
2022-11-26T01:48:51.893Z, 35.95
2022-11-26T01:49:51.870Z, 35.96
2022-11-26T01:50:51.866Z, 35.95
2022-11-26T01:51:51.898Z, 35.95
2022-11-26T01:52:51.887Z, 35.92
2022-11-26T01:53:51.897Z, 35.88
2022-11-26T01:54:51.901Z, 35.88
2022-11-26T01:55:51.883Z, 35.85
2022-11-26T01:56:52.044Z, 35.80
2022-11-26T01:57:52.042Z, 35.77
2022-11-26T01:58:51.910Z, 35.85
2022-11-26T01:59:51.904Z, 35.84
2022-11-26T02:00:51.948Z, 35.81
2022-11-26T02:01:52.090Z, 35.81
2022-11-26T02:02:52.050Z, 35.80
2022-11-26T02:03:52.043Z, 35.79
2022-11-26T02:04:52.055Z, 35.79
2022-11-26T02:05:52.077Z, 35.77
2022-11-26T02:06:52.053Z, 35.77
2022-11-26T02:07:52.122Z, 35.74
2022-11-26T02:08:52.054Z, 35.69
2022-11-26T02:09:52.058Z, 35.73
2022-11-26T02:10:52.056Z, 35.71
2022-11-26T02:11:52.086Z, 35.69
2022-11-26T02:12:52.221Z, 35.67
2022-11-26T02:13:52.220Z, 35.61
2022-11-26T02:14:52.227Z, 35.59
2022-11-26T02:15:52.082Z, 35.60
2022-11-26T02:16:52.116Z, 35.58
2022-11-26T02:17:52.091Z, 35.54
2022-11-26T02:18:52.088Z, 35.53
2022-11-26T02:19:52.236Z, 35.50
2022-11-26T02:20:52.236Z, 35.47
2022-11-26T02:21:52.235Z, 35.44
2022-11-26T02:22:52.241Z, 35.43
2022-11-26T02:23:52.237Z, 35.47
2022-11-26T02:24:52.236Z, 35.47
2022-11-26T02:25:52.242Z, 35.43
2022-11-26T02:26:52.259Z, 35.38
2022-11-26T02:27:52.268Z, 35.37
2022-11-26T02:28:52.268Z, 35.39
2022-11-26T02:29:52.260Z, 35.38
2022-11-26T02:30:52.411Z, 35.39
2022-11-26T02:31:52.360Z, 35.34
2022-11-26T02:32:52.409Z, 35.29
2022-11-26T02:33:52.427Z, 35.30
2022-11-26T02:34:52.417Z, 35.31
2022-11-26T02:35:52.426Z, 35.30
2022-11-26T02:36:52.430Z, 35.24
2022-11-26T02:37:52.418Z, 35.21
2022-11-26T02:38:52.415Z, 35.22
2022-11-26T02:39:52.422Z, 35.16
2022-11-26T02:40:52.421Z, 35.19
2022-11-26T02:41:52.420Z, 35.19
2022-11-26T02:42:52.424Z, 35.18
2022-11-26T02:43:52.451Z, 35.15
2022-11-26T02:44:52.596Z, 35.18
2022-11-26T02:45:52.541Z, 35.18
2022-11-26T02:46:52.448Z, 35.15
2022-11-26T02:47:52.456Z, 35.11
2022-11-26T02:48:52.436Z, 35.12
2022-11-26T02:49:52.454Z, 35.05
2022-11-26T02:50:52.601Z, 35.03
2022-11-26T02:51:52.597Z, 35.04
2022-11-26T02:52:52.597Z, 34.93
2022-11-26T02:53:52.609Z, 34.98
2022-11-26T02:54:52.610Z, 34.99
2022-11-26T02:55:52.609Z, 34.98
2022-11-26T02:56:52.609Z, 34.95
2022-11-26T02:57:52.628Z, 34.87
2022-11-26T02:58:52.772Z, 34.88
2022-11-26T02:59:52.631Z, 34.92
2022-11-26T03:00:52.831Z, 34.87
2022-11-26T03:01:52.638Z, 34.89
2022-11-26T03:02:52.632Z, 34.85
2022-11-26T03:03:52.896Z, 34.85
2022-11-26T03:04:52.785Z, 34.83
2022-11-26T03:05:52.799Z, 34.81
2022-11-26T03:06:52.783Z, 34.73
2022-11-26T03:07:52.857Z, 34.74
2022-11-26T03:08:52.781Z, 34.77
2022-11-26T03:09:52.785Z, 34.74
2022-11-26T03:10:52.788Z, 34.72
2022-11-26T03:11:52.841Z, 34.73
2022-11-26T03:12:52.811Z, 34.79
2022-11-26T03:13:52.789Z, 34.76
2022-11-26T03:14:52.788Z, 34.68
2022-11-26T03:15:52.789Z, 34.66
2022-11-26T03:16:52.860Z, 34.66
2022-11-26T03:17:52.959Z, 34.69
2022-11-26T03:18:52.966Z, 34.64
2022-11-26T03:19:52.962Z, 34.63
2022-11-26T03:20:52.965Z, 34.61
2022-11-26T03:21:52.961Z, 34.56
2022-11-26T03:22:52.974Z, 34.59
2022-11-26T03:23:52.969Z, 34.56
2022-11-26T03:24:52.966Z, 34.59
2022-11-26T03:25:52.963Z, 34.59
2022-11-26T03:26:52.993Z, 34.59
2022-11-26T03:27:52.968Z, 34.60
2022-11-26T03:28:52.976Z, 34.57
2022-11-26T03:29:53.141Z, 34.53
2022-11-26T03:30:52.976Z, 34.48
2022-11-26T03:31:53.063Z, 34.50
2022-11-26T03:32:52.971Z, 34.48
2022-11-26T03:33:53.140Z, 34.49
2022-11-26T03:34:53.000Z, 34.49
2022-11-26T03:35:53.144Z, 34.41
2022-11-26T03:36:53.155Z, 34.40
2022-11-26T03:37:53.151Z, 34.42
2022-11-26T03:38:53.144Z, 34.41
2022-11-26T03:39:53.148Z, 34.39
2022-11-26T03:40:53.147Z, 34.37
2022-11-26T03:41:53.152Z, 34.41
2022-11-26T03:42:53.153Z, 34.37
2022-11-26T03:43:53.190Z, 34.32
2022-11-26T03:44:53.176Z, 34.31
2022-11-26T03:45:53.250Z, 34.29
2022-11-26T03:46:53.186Z, 34.29
2022-11-26T03:47:53.183Z, 34.30
2022-11-26T03:48:53.186Z, 34.31
2022-11-26T03:49:53.321Z, 34.29
2022-11-26T03:50:53.330Z, 34.25
2022-11-26T03:51:53.330Z, 34.24
2022-11-26T03:52:53.336Z, 34.18
2022-11-26T03:53:53.343Z, 34.21
2022-11-26T03:54:53.333Z, 34.16
2022-11-26T03:55:53.329Z, 34.12
2022-11-26T03:56:53.339Z, 34.16
2022-11-26T03:57:53.335Z, 34.16
2022-11-26T03:58:53.339Z, 34.11
2022-11-26T03:59:53.336Z, 34.04
2022-11-26T04:00:53.507Z, 34.06
2022-11-26T04:01:53.485Z, 34.06
2022-11-26T04:02:53.429Z, 34.10
2022-11-26T04:03:53.355Z, 34.06
2022-11-26T04:04:53.364Z, 34.07
2022-11-26T04:05:53.375Z, 34.04
2022-11-26T04:06:53.364Z, 33.97
2022-11-26T04:07:53.583Z, 34.00
2022-11-26T04:08:53.508Z, 34.03
2022-11-26T04:09:53.523Z, 33.95
2022-11-26T04:10:53.520Z, 34.02
2022-11-26T04:11:53.552Z, 34.03
2022-11-26T04:12:53.512Z, 34.03
2022-11-26T04:13:53.517Z, 33.98
2022-11-26T04:14:53.516Z, 33.96
2022-11-26T04:15:53.523Z, 33.92
2022-11-26T04:16:53.613Z, 33.89
2022-11-26T04:17:53.533Z, 33.88
2022-11-26T04:18:53.696Z, 33.89
2022-11-26T04:19:53.693Z, 33.87
2022-11-26T04:20:53.779Z, 33.87
2022-11-26T04:21:53.699Z, 33.91
2022-11-26T04:22:53.702Z, 33.84
2022-11-26T04:23:53.697Z, 33.86
2022-11-26T04:24:53.698Z, 33.86
2022-11-26T04:25:53.698Z, 33.81
2022-11-26T04:26:53.699Z, 33.77
2022-11-26T04:27:53.708Z, 33.76
2022-11-26T04:28:53.702Z, 33.81
2022-11-26T04:29:53.702Z, 33.77
2022-11-26T04:30:53.725Z, 33.75
2022-11-26T04:31:53.816Z, 34.80
2022-11-26T04:32:53.705Z, 35.51
2022-11-26T04:33:53.706Z, 35.59
2022-11-26T04:34:53.706Z, 35.60
2022-11-26T04:35:53.725Z, 35.55
2022-11-26T04:36:53.727Z, 35.16
2022-11-26T04:37:53.764Z, 34.15
2022-11-26T04:38:53.773Z, 33.23
2022-11-26T04:39:53.771Z, 32.49
2022-11-26T04:40:53.766Z, 32.47
2022-11-26T04:41:53.769Z, 37.02
2022-11-26T04:42:53.778Z, 42.91
2022-11-26T04:43:53.768Z, 45.02
2022-11-26T04:44:53.777Z, 43.17
2022-11-26T04:45:53.800Z, 40.86
2022-11-26T04:46:53.779Z, 38.90
2022-11-26T04:47:53.832Z, 37.40
2022-11-26T04:48:53.836Z, 36.09
2022-11-26T04:49:53.850Z, 34.86
2022-11-26T04:50:53.978Z, 33.54
2022-11-26T04:51:53.817Z, 32.32
2022-11-26T04:52:53.817Z, 31.46
2022-11-26T04:53:55.719Z, 30.93
2022-11-26T04:54:53.821Z, 30.60
2022-11-26T04:55:53.868Z, 30.35
2022-11-26T04:56:53.934Z, 30.47
2022-11-26T04:57:53.907Z, 35.01
2022-11-26T04:58:53.892Z, 40.29
2022-11-26T04:59:53.891Z, 43.75
2022-11-26T05:00:53.922Z, 43.91
2022-11-26T05:01:53.960Z, 41.23
2022-11-26T05:02:54.012Z, 38.64
2022-11-26T05:03:53.990Z, 36.27
2022-11-26T05:04:53.981Z, 34.33
2022-11-26T05:05:54.025Z, 31.90
2022-11-26T05:06:54.026Z, 30.19
2022-11-26T05:07:54.108Z, 29.13
2022-11-26T05:08:53.984Z, 28.94
2022-11-26T05:09:54.004Z, 31.53
2022-11-26T05:10:54.012Z, 33.47
2022-11-26T05:11:54.095Z, 36.09
2022-11-26T05:12:54.073Z, 39.07
2022-11-26T05:13:54.091Z, 42.26
2022-11-26T05:14:54.080Z, 46.01
2022-11-26T05:15:54.092Z, 49.81
2022-11-26T05:16:54.175Z, 53.80
2022-11-26T05:17:54.084Z, 58.14
2022-11-26T05:18:54.086Z, 63.98
2022-11-26T05:19:54.091Z, 63.32
2022-11-26T05:20:54.124Z, 51.99
2022-11-26T05:21:54.189Z, 53.25
2022-11-26T05:22:54.210Z, 54.03
2022-11-26T05:23:54.181Z, 55.73
2022-11-26T05:24:54.172Z, 58.22
2022-11-26T05:25:54.248Z, 61.28
2022-11-26T05:26:57.178Z, 66.05
2022-11-26T05:27:54.289Z, 53.02
2022-11-26T05:28:54.278Z, 53.65
2022-11-26T05:29:54.311Z, 54.88
2022-11-26T05:30:54.282Z, 56.44
2022-11-26T05:31:54.399Z, 58.90
2022-11-26T05:32:54.278Z, 60.88
2022-11-26T05:33:54.282Z, 63.51
2022-11-26T05:34:58.628Z, 65.20
2022-11-26T05:35:54.307Z, 65.00
2022-11-26T05:36:54.386Z, 61.14
2022-11-26T05:37:54.372Z, 56.61
2022-11-26T05:38:54.364Z, 53.12
2022-11-26T05:39:54.354Z, 49.90
2022-11-26T05:40:54.365Z, 46.47
2022-11-26T05:41:54.383Z, 43.25
2022-11-26T05:42:54.379Z, 40.98
2022-11-26T05:43:54.466Z, 39.30
2022-11-26T05:44:54.495Z, 37.89
2022-11-26T05:45:54.547Z, 36.80
2022-11-26T05:46:54.478Z, 40.03
2022-11-26T05:47:54.466Z, 44.53
2022-11-26T05:48:54.467Z, 47.28
2022-11-26T05:49:54.470Z, 48.78
2022-11-26T05:50:54.688Z, 47.66
2022-11-26T05:51:54.500Z, 45.59
2022-11-26T05:52:54.493Z, 43.54
2022-11-26T05:53:54.506Z, 41.64
2022-11-26T05:54:54.593Z, 39.75
2022-11-26T05:55:54.625Z, 37.95
2022-11-26T05:56:59.960Z, 35.55
2022-11-26T05:57:54.575Z, 32.99
2022-11-26T05:58:54.588Z, 31.16
2022-11-26T05:59:54.634Z, 32.54
2022-11-26T06:00:54.620Z, 37.48
2022-11-26T06:01:54.797Z, 41.45
2022-11-26T06:02:54.784Z, 44.03
2022-11-26T06:03:54.737Z, 45.83
2022-11-26T06:04:54.651Z, 47.89
2022-11-26T06:05:54.719Z, 49.97
2022-11-26T06:06:54.691Z, 50.68
2022-11-26T06:07:54.754Z, 49.00
2022-11-26T06:08:54.712Z, 46.44
2022-11-26T06:09:54.689Z, 43.99
2022-11-26T06:10:54.814Z, 41.62
2022-11-26T06:11:54.767Z, 39.42
2022-11-26T06:12:54.767Z, 36.79
2022-11-26T06:13:54.873Z, 33.79
2022-11-26T06:14:54.812Z, 31.83
2022-11-26T06:15:54.848Z, 31.51
2022-11-26T06:16:54.895Z, 31.50
2022-11-26T06:17:54.808Z, 31.85
2022-11-26T06:18:54.828Z, 32.26
2022-11-26T06:19:54.849Z, 32.57
2022-11-26T06:20:54.919Z, 32.82
2022-11-26T06:21:54.922Z, 32.99
2022-11-26T06:22:54.909Z, 33.14
2022-11-26T06:23:59.339Z, 33.26
2022-11-26T06:24:54.990Z, 33.36
2022-11-26T06:25:54.973Z, 33.43
2022-11-26T06:26:54.958Z, 33.50
2022-11-26T06:27:54.946Z, 33.56
2022-11-26T06:28:54.990Z, 33.59
2022-11-26T06:29:55.034Z, 33.61
2022-11-26T06:30:55.010Z, 33.62
2022-11-26T06:31:55.108Z, 33.60
2022-11-26T06:32:55.039Z, 33.58
2022-11-26T06:33:55.029Z, 33.54
2022-11-26T06:34:55.033Z, 33.50
2022-11-26T06:35:55.053Z, 33.46
2022-11-26T06:36:55.051Z, 33.41
2022-11-26T06:37:55.033Z, 33.35
2022-11-26T06:38:55.034Z, 33.31
2022-11-26T06:39:55.054Z, 33.25
2022-11-26T06:40:55.085Z, 33.18
2022-11-26T06:41:55.100Z, 33.12
2022-11-26T06:42:55.119Z, 33.06
2022-11-26T06:43:55.148Z, 33.00
2022-11-26T06:44:59.438Z, 32.94
2022-11-26T06:45:55.201Z, 32.87
2022-11-26T06:46:55.167Z, 32.79
2022-11-26T06:47:55.187Z, 32.73
2022-11-26T06:48:55.202Z, 32.66
2022-11-26T06:49:55.225Z, 32.59
2022-11-26T06:50:55.214Z, 32.52
2022-11-26T06:51:55.229Z, 32.45
2022-11-26T06:52:55.291Z, 32.38
2022-11-26T06:53:55.324Z, 32.30
2022-11-26T06:54:55.301Z, 32.25
2022-11-26T06:55:55.288Z, 32.18
2022-11-26T06:56:55.356Z, 32.11
2022-11-26T06:57:55.356Z, 32.04
2022-11-26T06:58:55.336Z, 31.98
2022-11-26T06:59:55.386Z, 31.92
2022-11-26T07:00:55.429Z, 31.85
2022-11-26T07:01:55.514Z, 31.79
2022-11-26T07:02:55.403Z, 31.73
2022-11-26T07:03:55.349Z, 31.67
2022-11-26T07:04:55.402Z, 31.61
2022-11-26T07:05:55.394Z, 31.55
2022-11-26T07:06:55.416Z, 31.48
2022-11-26T07:07:55.540Z, 31.41
2022-11-26T07:08:55.488Z, 31.35
2022-11-26T07:09:55.502Z, 31.27
2022-11-26T07:10:55.531Z, 31.20
2022-11-26T07:11:55.528Z, 31.13
2022-11-26T07:12:55.524Z, 31.06
2022-11-26T07:13:55.515Z, 31.01
2022-11-26T07:14:55.542Z, 30.94
2022-11-26T07:15:55.535Z, 30.88
2022-11-26T07:16:55.581Z, 30.83
2022-11-26T07:17:55.560Z, 30.77
2022-11-26T07:19:02.174Z, 30.69
2022-11-26T07:19:55.577Z, 30.65
2022-11-26T07:20:55.620Z, 30.59
2022-11-26T07:21:55.628Z, 30.52
2022-11-26T07:22:55.610Z, 30.47
2022-11-26T07:23:55.639Z, 30.43
2022-11-26T07:24:55.629Z, 30.39
2022-11-26T07:25:55.625Z, 30.34
2022-11-26T07:26:55.714Z, 30.30
2022-11-26T07:27:55.680Z, 30.27
2022-11-26T07:28:55.685Z, 30.24
2022-11-26T07:29:55.690Z, 30.19
2022-11-26T07:30:55.801Z, 30.14
2022-11-26T07:31:55.784Z, 30.11
2022-11-26T07:32:55.754Z, 30.06
2022-11-26T07:33:55.741Z, 30.04
2022-11-26T07:34:55.772Z, 30.01
2022-11-26T07:35:55.842Z, 29.97
2022-11-26T07:36:58.152Z, 29.93
2022-11-26T07:37:55.865Z, 29.88
2022-11-26T07:38:55.876Z, 29.84
2022-11-26T07:39:55.855Z, 29.80
2022-11-26T07:40:55.910Z, 29.76
2022-11-26T07:41:55.883Z, 29.73
2022-11-26T07:42:55.895Z, 29.70
2022-11-26T07:43:55.931Z, 29.69
2022-11-26T07:44:55.948Z, 29.65
2022-11-26T07:45:56.069Z, 29.62
2022-11-26T07:46:55.989Z, 29.59
2022-11-26T07:47:55.942Z, 29.54
2022-11-26T07:48:55.940Z, 29.51
2022-11-26T07:49:55.949Z, 29.47
2022-11-26T07:50:56.008Z, 29.44
2022-11-26T07:51:56.002Z, 29.41
2022-11-26T07:52:56.038Z, 29.38
2022-11-26T07:53:55.998Z, 29.37
2022-11-26T07:54:55.998Z, 29.34
2022-11-26T07:55:55.998Z, 29.31
2022-11-26T07:56:56.022Z, 29.28
2022-11-26T07:57:56.022Z, 29.25
2022-11-26T07:58:56.043Z, 29.22
2022-11-26T07:59:56.128Z, 29.21
2022-11-26T08:00:56.154Z, 29.17
2022-11-26T08:01:56.188Z, 29.14
2022-11-26T08:02:56.233Z, 29.11
2022-11-26T08:03:56.187Z, 29.10
2022-11-26T08:04:56.157Z, 29.08
2022-11-26T08:05:56.159Z, 29.06
2022-11-26T08:06:56.204Z, 29.02
2022-11-26T08:07:56.302Z, 29.01
2022-11-26T08:08:56.173Z, 28.99
2022-11-26T08:09:56.186Z, 28.97
2022-11-26T08:10:56.267Z, 28.95
2022-11-26T08:11:56.241Z, 28.92
2022-11-26T08:12:56.230Z, 28.89
2022-11-26T08:13:56.226Z, 28.87
2022-11-26T08:14:56.324Z, 28.86
2022-11-26T08:15:56.329Z, 28.83
2022-11-26T08:16:56.412Z, 28.82
2022-11-26T08:17:56.286Z, 28.80
2022-11-26T08:18:56.308Z, 28.80
2022-11-26T08:19:56.365Z, 28.76
2022-11-26T08:20:56.365Z, 28.74
2022-11-26T08:21:56.392Z, 28.72
2022-11-26T08:22:56.389Z, 28.70
2022-11-26T08:23:56.367Z, 28.70
2022-11-26T08:24:56.454Z, 28.70
2022-11-26T08:26:21.565Z, 28.67
2022-11-26T08:26:56.454Z, 28.64
2022-11-26T08:27:56.437Z, 28.63
2022-11-26T08:28:56.440Z, 28.61
2022-11-26T08:29:56.492Z, 28.61
2022-11-26T08:30:56.453Z, 28.57
2022-11-26T08:31:56.557Z, 28.56
2022-11-26T08:32:56.489Z, 28.52
2022-11-26T08:33:56.505Z, 28.51
2022-11-26T08:34:56.515Z, 28.49
2022-11-26T08:36:06.747Z, 28.49
2022-11-26T08:36:56.594Z, 28.47
2022-11-26T08:37:56.569Z, 28.47
2022-11-26T08:38:56.577Z, 28.46
2022-11-26T08:39:56.575Z, 28.44
2022-11-26T08:40:56.642Z, 28.43
2022-11-26T08:41:56.605Z, 28.41
2022-11-26T08:42:56.619Z, 28.40
2022-11-26T08:44:06.586Z, 28.39
2022-11-26T08:44:56.619Z, 28.37
2022-11-26T08:45:56.700Z, 28.35
2022-11-26T08:46:56.721Z, 28.34
2022-11-26T08:47:56.678Z, 28.32
2022-11-26T08:48:56.685Z, 28.32
2022-11-26T08:49:56.746Z, 28.33
2022-11-26T08:50:56.773Z, 28.33
2022-11-26T08:51:56.721Z, 28.31
2022-11-26T08:52:56.753Z, 28.30
2022-11-26T08:53:56.737Z, 28.28
2022-11-26T08:54:56.745Z, 28.27
2022-11-26T08:56:00.415Z, 28.27
2022-11-26T08:56:56.842Z, 28.25
2022-11-26T08:57:56.801Z, 28.24
2022-11-26T08:58:56.830Z, 28.23
2022-11-26T08:59:56.858Z, 28.23
2022-11-26T09:00:56.864Z, 28.21
2022-11-26T09:01:56.987Z, 28.21
2022-11-26T09:02:56.896Z, 28.20
2022-11-26T09:03:56.908Z, 28.21
2022-11-26T09:04:56.855Z, 28.16
2022-11-26T09:05:56.861Z, 28.16
2022-11-26T09:06:56.904Z, 28.13
2022-11-26T09:07:56.919Z, 28.12
2022-11-26T09:08:56.904Z, 28.10
2022-11-26T09:09:56.990Z, 28.11
2022-11-26T09:10:56.959Z, 28.08
2022-11-26T09:11:56.970Z, 28.10
2022-11-26T09:12:56.948Z, 28.07
2022-11-26T09:13:57.024Z, 28.05
2022-11-26T09:14:57.018Z, 28.05
2022-11-26T09:15:56.993Z, 28.05
2022-11-26T09:16:57.049Z, 28.02
2022-11-26T09:17:57.083Z, 28.02
2022-11-26T09:18:57.071Z, 28.01
2022-11-26T09:19:57.074Z, 28.00
2022-11-26T09:20:57.394Z, 27.99
2022-11-26T09:21:57.070Z, 27.97
2022-11-26T09:22:57.069Z, 27.94
2022-11-26T09:23:57.087Z, 27.94
2022-11-26T09:24:57.193Z, 27.91
2022-11-26T09:25:57.157Z, 27.90
2022-11-26T09:26:57.175Z, 27.86
2022-11-26T09:27:57.186Z, 27.89
2022-11-26T09:28:57.172Z, 27.89
2022-11-26T09:29:57.239Z, 27.85
2022-11-26T09:30:57.190Z, 27.84
2022-11-26T09:32:21.954Z, 27.82
2022-11-26T09:32:57.285Z, 27.82
2022-11-26T09:33:57.297Z, 27.82
2022-11-26T09:34:57.268Z, 27.82
2022-11-26T09:35:57.266Z, 27.82
2022-11-26T09:36:57.324Z, 27.78
2022-11-26T09:37:57.287Z, 27.79
2022-11-26T09:38:57.287Z, 27.78
2022-11-26T09:39:57.294Z, 27.79
2022-11-26T09:40:57.284Z, 27.77
2022-11-26T09:41:57.328Z, 27.74
2022-11-26T09:42:57.329Z, 27.72
2022-11-26T09:43:57.326Z, 27.72
2022-11-26T09:44:57.350Z, 27.70
2022-11-26T09:45:57.490Z, 27.69
2022-11-26T09:47:11.707Z, 27.70
2022-11-26T09:47:57.472Z, 27.69
2022-11-26T09:49:01.310Z, 27.66
2022-11-26T09:49:57.467Z, 27.67
2022-11-26T09:50:57.473Z, 27.68
2022-11-26T09:51:57.467Z, 27.64
2022-11-26T09:52:57.533Z, 27.65
2022-11-26T09:53:57.540Z, 27.62
2022-11-26T09:54:57.530Z, 27.62
2022-11-26T09:55:57.512Z, 27.61
2022-11-26T09:56:57.590Z, 27.60
2022-11-26T09:57:57.549Z, 27.60
2022-11-26T09:58:57.546Z, 27.61
2022-11-26T09:59:57.558Z, 27.60
2022-11-26T10:00:57.639Z, 27.60
2022-11-26T10:01:57.651Z, 27.58
2022-11-26T10:02:57.630Z, 27.58
2022-11-26T10:03:57.588Z, 27.57
2022-11-26T10:04:57.646Z, 27.55
2022-11-26T10:05:57.668Z, 27.54
2022-11-26T10:06:57.626Z, 27.53
2022-11-26T10:07:57.750Z, 27.53
2022-11-26T10:08:57.641Z, 27.53
2022-11-26T10:09:57.699Z, 27.52
2022-11-26T10:11:02.565Z, 27.51
2022-11-26T10:11:57.731Z, 27.48
2022-11-26T10:13:18.140Z, 27.48
2022-11-26T10:13:57.780Z, 27.48
2022-11-26T10:14:57.743Z, 27.51
2022-11-26T10:15:57.824Z, 27.52
2022-11-26T10:16:57.840Z, 27.50
2022-11-26T10:17:57.776Z, 27.48
2022-11-26T10:18:57.783Z, 27.47
2022-11-26T10:19:57.806Z, 27.45
2022-11-26T10:20:57.815Z, 27.44
2022-11-26T10:21:59.348Z, 27.44
2022-11-26T10:22:57.871Z, 27.42
2022-11-26T10:23:57.878Z, 27.42
2022-11-26T10:24:57.912Z, 27.40
2022-11-26T10:25:57.928Z, 27.39
2022-11-26T10:26:57.883Z, 27.38
2022-11-26T10:27:57.895Z, 27.37
2022-11-26T10:28:57.884Z, 27.37
2022-11-26T10:29:57.886Z, 27.36
2022-11-26T10:30:57.999Z, 27.35
2022-11-26T10:31:58.049Z, 27.36
2022-11-26T10:32:58.035Z, 27.37
2022-11-26T10:33:58.036Z, 27.33
2022-11-26T10:34:57.989Z, 27.31
2022-11-26T10:35:58.002Z, 27.33
2022-11-26T10:36:58.075Z, 27.35
2022-11-26T10:37:58.028Z, 27.34
2022-11-26T10:38:58.035Z, 27.32
2022-11-26T10:40:01.012Z, 27.33
2022-11-26T10:40:58.037Z, 27.32
2022-11-26T10:41:58.052Z, 27.32
2022-11-26T10:42:58.139Z, 27.28
2022-11-26T10:43:58.150Z, 27.27
2022-11-26T10:44:58.132Z, 27.27
2022-11-26T10:45:58.283Z, 27.28
2022-11-26T10:46:58.173Z, 27.25
2022-11-26T10:47:58.159Z, 27.23
2022-11-26T10:48:58.158Z, 27.21
2022-11-26T10:49:58.141Z, 27.23
2022-11-26T10:50:58.164Z, 27.21
2022-11-26T10:51:58.182Z, 27.20
2022-11-26T10:52:58.253Z, 27.19
2022-11-26T10:53:58.263Z, 27.19
2022-11-26T10:54:58.236Z, 27.20
2022-11-26T10:55:58.297Z, 27.19
2022-11-26T10:56:58.271Z, 27.19
2022-11-26T10:57:58.253Z, 27.18
2022-11-26T10:58:58.252Z, 27.16
2022-11-26T10:59:58.281Z, 27.16
2022-11-26T11:00:58.371Z, 27.22
2022-11-26T11:01:58.437Z, 28.08
2022-11-26T11:02:58.399Z, 29.07
2022-11-26T11:04:09.098Z, 35.31
2022-11-26T11:04:58.427Z, 39.92
2022-11-26T11:05:58.374Z, 42.06
2022-11-26T11:06:58.391Z, 43.71
2022-11-26T11:07:58.556Z, 45.20
2022-11-26T11:08:58.493Z, 47.43
2022-11-26T11:09:58.439Z, 48.99
2022-11-26T11:10:58.433Z, 46.51
2022-11-26T11:11:58.452Z, 42.48
2022-11-26T11:12:58.552Z, 39.11
2022-11-26T11:13:58.481Z, 35.33
2022-11-26T11:14:58.482Z, 32.40
2022-11-26T11:15:58.569Z, 31.55
2022-11-26T11:16:58.498Z, 33.80
2022-11-26T11:17:58.499Z, 39.20
2022-11-26T11:18:58.529Z, 41.30
2022-11-26T11:19:58.538Z, 41.60
2022-11-26T11:20:58.539Z, 41.60
2022-11-26T11:21:58.592Z, 41.48
2022-11-26T11:22:58.555Z, 41.36
2022-11-26T11:24:08.610Z, 41.19
2022-11-26T11:24:58.585Z, 41.08
2022-11-26T11:25:58.587Z, 40.93
2022-11-26T11:26:58.607Z, 40.80
2022-11-26T11:27:58.677Z, 40.66
2022-11-26T11:28:58.710Z, 40.55
2022-11-26T11:29:58.697Z, 40.44
2022-11-26T11:30:58.674Z, 40.29
2022-11-26T11:31:58.768Z, 40.21
2022-11-26T11:32:58.761Z, 40.11
2022-11-26T11:33:58.722Z, 39.97
2022-11-26T11:34:58.768Z, 39.87
2022-11-26T11:35:58.791Z, 39.72
2022-11-26T11:36:58.763Z, 39.60
2022-11-26T11:37:58.760Z, 39.49
2022-11-26T11:38:58.767Z, 39.38
2022-11-26T11:39:58.770Z, 39.25
2022-11-26T11:40:58.847Z, 39.17
2022-11-26T11:41:58.836Z, 39.04
2022-11-26T11:42:58.916Z, 38.91
2022-11-26T11:43:58.820Z, 38.80
2022-11-26T11:44:58.881Z, 38.70
2022-11-26T11:45:58.959Z, 38.61
2022-11-26T11:46:58.872Z, 38.50
2022-11-26T11:47:58.872Z, 38.39
2022-11-26T11:48:58.854Z, 38.30
2022-11-26T11:49:58.869Z, 38.17
2022-11-26T11:50:58.925Z, 38.11
2022-11-26T11:51:59.004Z, 37.98
2022-11-26T11:52:58.975Z, 37.92
2022-11-26T11:53:59.144Z, 37.81
2022-11-26T11:54:59.017Z, 37.71
2022-11-26T11:56:02.400Z, 37.63
2022-11-26T11:56:59.012Z, 37.55
2022-11-26T11:57:59.003Z, 37.41
2022-11-26T11:58:59.076Z, 37.33
2022-11-26T11:59:59.054Z, 37.19
2022-11-26T12:00:59.046Z, 37.12
2022-11-26T12:01:59.158Z, 37.05
2022-11-26T12:02:59.086Z, 36.97
2022-11-26T12:03:59.196Z, 36.86
2022-11-26T12:04:59.156Z, 36.79
2022-11-26T12:05:59.100Z, 36.68
2022-11-26T12:06:59.152Z, 36.60
2022-11-26T12:07:59.208Z, 36.51
2022-11-26T12:08:59.139Z, 36.49
2022-11-26T12:09:59.194Z, 36.42
2022-11-26T12:10:59.174Z, 36.36
2022-11-26T12:11:59.186Z, 36.29
2022-11-26T12:12:59.194Z, 36.20
2022-11-26T12:13:59.181Z, 36.13
2022-11-26T12:14:59.189Z, 36.04
2022-11-26T12:15:59.208Z, 35.98
2022-11-26T12:16:59.241Z, 35.91
2022-11-26T12:17:59.218Z, 35.87
2022-11-26T12:18:59.227Z, 35.81
2022-11-26T12:19:59.235Z, 35.71
2022-11-26T12:20:59.259Z, 35.65
2022-11-26T12:21:59.279Z, 35.58
2022-11-26T12:22:59.307Z, 35.53
2022-11-26T12:23:59.368Z, 35.49
2022-11-26T12:24:59.365Z, 35.44
2022-11-26T12:25:59.382Z, 35.37
2022-11-26T12:26:59.371Z, 35.32
2022-11-26T12:27:59.463Z, 35.30
2022-11-26T12:28:59.415Z, 35.22